createdAt,value
2022-09-26T00:01:35.151Z,54.33
2022-09-26T00:04:07.050Z,51.42
2022-09-26T00:06:35.006Z,49.13
2022-09-26T00:09:03.012Z,53.78
2022-09-26T00:11:33.610Z,53.03
2022-09-26T00:14:08.214Z,54.13
2022-09-26T00:16:36.907Z,53.47
2022-09-26T00:19:05.468Z,49.00
2022-09-26T00:21:33.396Z,46.20
2022-09-26T00:24:02.491Z,55.30
2022-09-26T00:26:32.599Z,54.88
2022-09-26T00:29:04.471Z,58.53
2022-09-26T00:31:35.997Z,47.83
2022-09-26T00:34:04.659Z,50.35
2022-09-26T00:36:38.349Z,45.47
2022-09-26T00:39:08.436Z,44.97
2022-09-26T00:41:37.870Z,44.03
2022-09-26T00:44:39.079Z,43.15
2022-09-26T00:47:21.090Z,36.78
2022-09-26T00:49:52.005Z,41.42
2022-09-26T00:52:26.136Z,43.30
2022-09-26T00:54:57.414Z,40.83
2022-09-26T00:57:33.321Z,39.50
2022-09-26T01:00:09.669Z,38.80
2022-09-26T01:02:40.085Z,42.15
2022-09-26T01:05:09.254Z,43.45
2022-09-26T01:07:37.182Z,41.97
2022-09-26T01:10:06.752Z,41.15
2022-09-26T01:12:37.471Z,41.13
2022-09-26T01:15:07.355Z,42.70
2022-09-26T01:17:37.797Z,47.35
2022-09-26T01:20:21.476Z,41.97
2022-09-26T01:23:13.786Z,55.92
2022-09-26T01:26:14.405Z,60.15
2022-09-26T01:29:03.665Z,56.00
2022-09-26T01:31:43.013Z,57.17
2022-09-26T01:34:23.356Z,59.08
2022-09-26T01:37:05.091Z,46.88
2022-09-26T01:39:47.581Z,47.85
2022-09-26T01:42:26.309Z,47.33
2022-09-26T01:45:01.421Z,48.13
2022-09-26T01:47:36.291Z,50.53
2022-09-26T01:50:13.010Z,48.13
2022-09-26T01:52:46.522Z,46.35
2022-09-26T01:55:18.842Z,44.83
2022-09-26T01:57:53.234Z,42.58
2022-09-26T02:00:21.662Z,42.05
2022-09-26T02:02:51.446Z,40.42
2022-09-26T02:05:26.125Z,44.20
2022-09-26T02:07:59.543Z,39.95
2022-09-26T02:10:34.106Z,47.63
2022-09-26T02:13:08.136Z,43.40
2022-09-26T02:15:39.051Z,40.70
2022-09-26T02:18:15.943Z,42.30
2022-09-26T02:20:49.986Z,43.25
2022-09-26T02:23:18.272Z,42.05
2022-09-26T02:25:46.024Z,42.67
2022-09-26T02:28:14.269Z,44.35
2022-09-26T02:30:45.255Z,42.88
2022-09-26T02:33:14.517Z,44.95
2022-09-26T02:35:56.910Z,48.42
2022-09-26T02:38:29.152Z,47.22
2022-09-26T02:41:02.991Z,45.92
2022-09-26T02:43:43.998Z,48.08
2022-09-26T02:46:29.517Z,47.72
2022-09-26T02:49:15.243Z,47.83
2022-09-26T02:51:59.695Z,44.90
2022-09-26T02:54:37.278Z,44.97
2022-09-26T02:57:18.455Z,48.28
2022-09-26T02:59:57.089Z,45.28
2022-09-26T03:02:31.032Z,46.97
2022-09-26T03:05:06.129Z,45.70
2022-09-26T03:07:40.925Z,42.05
2022-09-26T03:10:10.830Z,44.83
2022-09-26T03:12:40.240Z,43.42
2022-09-26T03:15:11.807Z,40.63
2022-09-26T03:17:46.021Z,42.85
2022-09-26T03:20:18.005Z,40.72
2022-09-26T03:22:47.005Z,42.08
2022-09-26T03:25:18.460Z,43.33
2022-09-26T03:27:47.127Z,43.88
2022-09-26T03:30:17.082Z,43.72
2022-09-26T03:32:44.953Z,42.35
2022-09-26T03:35:12.697Z,40.80
2022-09-26T03:37:42.590Z,46.45
2022-09-26T03:40:13.276Z,48.75
2022-09-26T03:42:41.624Z,43.78
2022-09-26T03:45:11.317Z,44.30
2022-09-26T03:47:39.681Z,46.22
2022-09-26T03:50:09.015Z,40.70
2022-09-26T03:52:37.397Z,39.70
2022-09-26T03:55:07.241Z,45.03
2022-09-26T03:57:35.519Z,44.30
2022-09-26T04:00:07.542Z,43.10
2022-09-26T04:02:35.945Z,39.15
2022-09-26T04:05:04.304Z,36.63
2022-09-26T04:07:32.263Z,36.38
2022-09-26T04:09:59.994Z,34.10
2022-09-26T04:12:29.461Z,34.67
2022-09-26T04:14:57.355Z,36.30
2022-09-26T04:17:25.098Z,36.42
2022-09-26T04:19:53.050Z,36.35
2022-09-26T04:22:21.130Z,38.63
2022-09-26T04:24:48.862Z,37.00
2022-09-26T04:27:16.864Z,39.75
2022-09-26T04:29:46.218Z,41.00
2022-09-26T04:32:13.959Z,39.35
2022-09-26T04:34:42.072Z,43.00
2022-09-26T04:37:10.110Z,42.05
2022-09-26T04:39:37.910Z,43.38
2022-09-26T04:42:06.116Z,46.47
2022-09-26T04:44:34.085Z,45.40
2022-09-26T04:47:03.121Z,47.90
2022-09-26T04:49:31.107Z,47.38
2022-09-26T04:51:58.942Z,49.15
2022-09-26T04:54:26.737Z,50.80
2022-09-26T04:56:54.815Z,51.72
2022-09-26T04:59:22.702Z,49.40
2022-09-26T05:01:50.638Z,47.92
2022-09-26T05:04:22.860Z,48.97
2022-09-26T05:06:57.689Z,47.78
2022-09-26T05:09:26.004Z,41.75
2022-09-26T05:11:53.869Z,43.50
2022-09-26T05:14:21.814Z,41.20
2022-09-26T05:16:50.320Z,40.08
2022-09-26T05:19:18.696Z,41.95
2022-09-26T05:21:47.938Z,39.97
2022-09-26T05:24:33.603Z,40.92
2022-09-26T05:27:02.514Z,43.85
2022-09-26T05:29:30.507Z,49.05
2022-09-26T05:31:59.803Z,50.63
2022-09-26T05:34:27.941Z,48.88
2022-09-26T05:36:57.149Z,56.08
2022-09-26T05:39:42.955Z,53.63
2022-09-26T05:42:11.081Z,56.63
2022-09-26T05:44:39.691Z,64.03
2022-09-26T05:47:08.569Z,58.13
2022-09-26T05:49:36.821Z,59.58
2022-09-26T05:52:06.165Z,63.22
2022-09-26T05:54:33.935Z,56.50
2022-09-26T05:57:02.125Z,57.58
2022-09-26T05:59:30.182Z,55.40
2022-09-26T06:01:58.737Z,54.28
2022-09-26T06:04:26.940Z,55.80
2022-09-26T06:06:54.807Z,51.90
2022-09-26T06:09:24.046Z,51.80
2022-09-26T06:11:51.873Z,49.72
2022-09-26T06:14:19.736Z,47.33
2022-09-26T06:16:49.986Z,46.03
2022-09-26T06:19:22.695Z,42.22
2022-09-26T06:21:51.086Z,37.08
2022-09-26T06:24:20.402Z,37.13
2022-09-26T06:26:49.510Z,35.63
2022-09-26T06:29:18.595Z,45.35
2022-09-26T06:31:46.607Z,50.15
2022-09-26T06:34:17.121Z,49.08
2022-09-26T06:36:46.836Z,46.95
2022-09-26T06:39:14.919Z,44.75
2022-09-26T06:41:43.552Z,49.78
2022-09-26T06:44:13.001Z,49.47
2022-09-26T06:46:40.936Z,49.13
2022-09-26T06:49:09.124Z,48.75
2022-09-26T06:51:38.013Z,47.35
2022-09-26T06:54:05.866Z,43.10
2022-09-26T06:56:34.243Z,40.33
2022-09-26T06:59:02.413Z,38.90
2022-09-26T07:01:32.461Z,41.97
2022-09-26T07:04:00.286Z,50.28
2022-09-26T07:06:28.125Z,46.90
2022-09-26T07:09:07.413Z,42.80
2022-09-26T07:12:02.708Z,44.50
2022-09-26T07:14:25.902Z,42.33
2022-09-26T07:16:55.245Z,45.60
2022-09-26T07:19:23.674Z,46.47
2022-09-26T07:21:51.674Z,44.05
2022-09-26T07:24:19.580Z,47.58
2022-09-26T07:26:47.585Z,44.65
2022-09-26T07:29:15.737Z,44.40
2022-09-26T07:31:43.668Z,44.17
2022-09-26T07:34:18.159Z,52.85
2022-09-26T07:36:47.443Z,52.92
2022-09-26T07:39:15.735Z,51.35
2022-09-26T07:41:45.828Z,52.83
2022-09-26T07:47:20.176Z,36.38
2022-09-26T07:50:07.137Z,47.88
2022-09-26T07:52:35.741Z,54.17
2022-09-26T07:55:03.918Z,50.65
2022-09-26T07:57:35.429Z,50.75
2022-09-26T08:00:05.979Z,52.97
2022-09-26T08:02:35.706Z,51.28
2022-09-26T08:05:06.547Z,53.00
2022-09-26T08:07:35.603Z,50.38
2022-09-26T08:10:05.505Z,50.55
2022-09-26T08:12:37.095Z,51.47
2022-09-26T08:15:06.968Z,45.92
2022-09-26T08:17:36.169Z,41.13
2022-09-26T08:20:06.211Z,38.88
2022-09-26T08:22:34.544Z,41.20
2022-09-26T08:25:03.142Z,47.13
2022-09-26T08:27:33.542Z,51.92
2022-09-26T08:30:04.205Z,51.70
2022-09-26T08:32:33.749Z,51.22
2022-09-26T08:35:01.840Z,52.60
2022-09-26T08:37:31.311Z,52.10
2022-09-26T08:40:00.706Z,51.03
2022-09-26T08:42:41.768Z,48.95
2022-09-26T08:45:49.396Z,53.05
2022-09-26T08:48:31.671Z,54.58
2022-09-26T08:51:04.436Z,55.42
2022-09-26T08:56:12.341Z,57.83
2022-09-26T08:58:44.031Z,60.92
2022-09-26T09:01:15.859Z,95.80
2022-09-26T09:03:51.830Z,84.50
2022-09-26T09:06:20.433Z,61.58
2022-09-26T09:08:52.126Z,58.00
2022-09-26T09:11:35.366Z,61.17
2022-09-26T09:14:18.177Z,54.30
2022-09-26T09:16:59.174Z,59.33
2022-09-26T09:19:38.948Z,56.17
2022-09-26T09:22:28.299Z,56.58
2022-09-26T09:25:01.182Z,53.30
2022-09-26T09:27:52.748Z,58.60
2022-09-26T09:30:23.465Z,54.17
2022-09-26T09:32:57.599Z,54.00
2022-09-26T09:35:41.214Z,48.47
2022-09-26T09:38:14.951Z,47.22
2022-09-26T09:40:50.920Z,45.08
2022-09-26T09:43:28.037Z,50.95
2022-09-26T09:46:02.576Z,52.55
2022-09-26T09:48:31.279Z,49.65
2022-09-26T09:51:19.188Z,48.35
2022-09-26T09:54:02.991Z,47.92
2022-09-26T09:56:43.464Z,42.25
2022-09-26T09:59:23.636Z,40.45
2022-09-26T10:01:59.892Z,39.67
2022-09-26T10:04:36.280Z,37.17
2022-09-26T10:07:05.501Z,35.33
2022-09-26T10:09:40.719Z,35.92
2022-09-26T10:12:16.607Z,35.53
2022-09-26T10:14:51.080Z,32.80
2022-09-26T10:17:21.603Z,33.95
2022-09-26T10:19:58.646Z,34.42
2022-09-26T10:22:32.687Z,32.00
2022-09-26T10:25:03.167Z,30.75
2022-09-26T10:27:40.580Z,28.98
2022-09-26T10:30:26.184Z,29.27
2022-09-26T10:32:56.986Z,27.10
2022-09-26T10:35:28.706Z,28.15
2022-09-26T10:38:01.659Z,30.77
2022-09-26T10:40:46.176Z,27.30
2022-09-26T10:43:30.454Z,23.73
2022-09-26T10:46:07.468Z,24.77
2022-09-26T10:48:42.858Z,24.23
2022-09-26T10:51:11.790Z,24.17
2022-09-26T10:53:42.830Z,21.23
2022-09-26T10:56:14.718Z,21.05
2022-09-26T10:58:47.041Z,21.98
2022-09-26T11:03:56.825Z,19.58
2022-09-26T11:06:31.689Z,18.73
2022-09-26T11:09:03.376Z,12.75
2022-09-26T11:11:35.169Z,13.15
2022-09-26T11:14:07.498Z,15.23
2022-09-26T11:16:41.354Z,14.45
2022-09-26T11:19:19.652Z,14.05
2022-09-26T11:21:52.482Z,12.63
2022-09-26T11:24:28.318Z,11.25
2022-09-26T11:27:11.412Z,10.30
2022-09-26T11:29:53.232Z,11.68
2022-09-26T11:32:28.137Z,10.05
2022-09-26T11:35:02.421Z,7.80
2022-09-26T11:37:43.326Z,8.52
2022-09-26T11:40:24.208Z,7.93
2022-09-26T11:43:15.256Z,8.07
2022-09-26T11:46:11.025Z,6.93
2022-09-26T11:48:55.120Z,7.72
2022-09-26T11:51:40.338Z,7.53
2022-09-26T11:54:23.643Z,7.78
2022-09-26T11:57:00.969Z,8.32
2022-09-26T11:59:43.317Z,8.10
2022-09-26T12:02:32.959Z,7.18
2022-09-26T12:05:17.518Z,6.25
2022-09-26T12:07:53.250Z,7.90
2022-09-26T12:10:35.045Z,7.80
2022-09-26T12:13:19.041Z,6.75
2022-09-26T12:15:56.230Z,6.50
2022-09-26T12:18:34.542Z,6.95
2022-09-26T12:21:18.471Z,7.07
2022-09-26T12:23:52.802Z,6.90
2022-09-26T12:26:27.622Z,6.45
2022-09-26T12:29:16.739Z,6.15
2022-09-26T12:32:15.693Z,6.05
2022-09-26T12:35:01.120Z,6.95
2022-09-26T12:37:45.706Z,7.35
2022-09-26T12:40:29.142Z,8.60
2022-09-26T12:43:22.948Z,7.82
2022-09-26T12:46:04.433Z,9.65
2022-09-26T12:48:45.468Z,8.40
2022-09-26T12:51:23.267Z,8.85
2022-09-26T12:54:20.325Z,10.50
2022-09-26T12:56:54.579Z,10.45
2022-09-26T12:59:53.424Z,8.82
2022-09-26T13:02:45.917Z,9.50
2022-09-26T13:07:57.258Z,7.43
2022-09-26T13:10:41.930Z,6.82
2022-09-26T13:13:39.655Z,6.25
2022-09-26T13:16:25.058Z,6.20
2022-09-26T13:19:01.375Z,6.47
2022-09-26T14:04:19.758Z,4.18
2022-09-26T14:07:28.174Z,3.73
2022-09-26T14:10:03.678Z,4.63
2022-09-26T14:12:34.991Z,4.90
2022-09-26T14:15:22.640Z,5.50
2022-09-26T14:18:23.638Z,5.75
2022-09-26T14:21:07.553Z,6.20
2022-09-26T14:23:38.835Z,5.20
2022-09-26T14:26:15.421Z,5.65
2022-09-26T14:28:51.194Z,5.82
2022-09-26T14:31:39.098Z,5.88
2022-09-26T14:34:22.889Z,5.93
2022-09-26T14:36:53.733Z,5.30
2022-09-26T14:39:31.845Z,6.10
2022-09-26T14:42:07.665Z,5.75
2022-09-26T14:44:37.462Z,5.50
2022-09-26T14:47:08.922Z,6.00
2022-09-26T14:49:37.068Z,6.90
2022-09-26T14:52:15.530Z,6.47
2022-09-26T14:54:43.813Z,6.20
2022-09-26T14:57:21.367Z,5.15
2022-09-26T14:59:49.653Z,5.53
2022-09-26T15:02:31.243Z,5.50
2022-09-26T15:07:35.075Z,5.65
2022-09-26T15:10:06.867Z,5.38
2022-09-26T15:12:40.342Z,5.50
2022-09-26T15:15:24.480Z,4.95
2022-09-26T15:17:57.550Z,6.07
2022-09-26T15:20:36.430Z,5.28
2022-09-26T15:23:19.013Z,5.32
2022-09-26T15:25:47.682Z,5.43
2022-09-26T15:28:15.504Z,5.40
2022-09-26T15:30:47.010Z,6.90
2022-09-26T15:33:18.647Z,7.90
2022-09-26T15:35:54.645Z,5.53
2022-09-26T15:38:24.983Z,6.97
2022-09-26T15:41:04.195Z,7.13
2022-09-26T15:43:35.223Z,7.93
2022-09-26T15:46:08.997Z,11.20
2022-09-26T15:48:43.862Z,8.13
2022-09-26T15:51:19.079Z,10.13
2022-09-26T15:53:54.135Z,11.27
2022-09-26T15:56:27.510Z,13.18
2022-09-26T15:58:59.009Z,13.05
2022-09-26T16:01:29.861Z,13.68
2022-09-26T16:04:01.186Z,14.13
2022-09-26T16:06:34.878Z,12.43
2022-09-26T16:09:10.069Z,10.00
2022-09-26T16:11:47.561Z,10.57
2022-09-26T16:14:26.711Z,12.02
2022-09-26T16:16:56.762Z,10.80
2022-09-26T16:19:31.326Z,9.82
2022-09-26T16:21:59.090Z,10.25
2022-09-26T16:24:34.413Z,9.13
2022-09-26T16:27:02.189Z,9.55
2022-09-26T16:29:34.051Z,11.15
2022-09-26T16:32:02.641Z,12.27
2022-09-26T16:34:30.893Z,11.90
2022-09-26T16:36:59.907Z,10.05
2022-09-26T16:39:29.494Z,12.63
2022-09-26T16:42:03.089Z,11.27
2022-09-26T16:44:36.366Z,9.70
2022-09-26T16:47:09.017Z,9.95
2022-09-26T16:52:26.543Z,11.35
2022-09-26T16:54:56.009Z,11.27
2022-09-26T16:57:27.862Z,11.15
2022-09-26T17:00:19.597Z,11.77
2022-09-26T17:02:47.628Z,11.27
2022-09-26T17:05:18.718Z,12.93
2022-09-26T17:07:48.144Z,14.30
2022-09-26T17:10:16.998Z,13.25
2022-09-26T17:12:50.699Z,13.18
2022-09-26T17:15:25.143Z,12.32
2022-09-26T17:17:54.231Z,15.25
2022-09-26T17:20:23.501Z,18.23
2022-09-26T17:22:51.413Z,20.77
2022-09-26T17:25:19.745Z,25.23
2022-09-26T17:27:53.569Z,26.63
2022-09-26T17:30:21.518Z,26.70
2022-09-26T17:32:54.243Z,27.40
2022-09-26T17:35:26.278Z,27.17
2022-09-26T17:37:54.713Z,24.85
2022-09-26T17:40:24.923Z,26.48
2022-09-26T17:42:56.462Z,22.10
2022-09-26T17:45:28.742Z,27.77
2022-09-26T17:47:59.125Z,21.48
2022-09-26T17:50:29.895Z,23.67
2022-09-26T17:52:58.862Z,21.02
2022-09-26T17:55:27.050Z,16.42
2022-09-26T17:57:56.843Z,13.95
2022-09-26T18:00:25.541Z,13.52
2022-09-26T18:03:00.438Z,12.70
2022-09-26T18:05:32.305Z,15.50
2022-09-26T18:08:05.221Z,15.82
2022-09-26T18:10:35.642Z,15.38
2022-09-26T18:13:13.010Z,18.98
2022-09-26T18:15:42.053Z,15.40
2022-09-26T18:18:13.963Z,16.00
2022-09-26T18:20:42.126Z,17.77
2022-09-26T18:23:15.768Z,16.00
2022-09-26T18:25:47.058Z,16.08
2022-09-26T18:28:20.411Z,14.73
2022-09-26T18:30:54.363Z,18.45
2022-09-26T18:33:27.638Z,15.73
2022-09-26T18:35:55.808Z,17.08
2022-09-26T18:38:23.516Z,19.80
2022-09-26T18:40:55.428Z,22.42
2022-09-26T18:45:53.657Z,19.98
2022-09-26T18:48:25.076Z,21.35
2022-09-26T18:50:54.068Z,19.92
2022-09-26T18:53:23.685Z,23.00
2022-09-26T18:56:09.198Z,25.10
2022-09-26T18:58:39.168Z,23.23
2022-09-26T19:01:12.292Z,16.65
2022-09-26T19:03:44.152Z,9.85
2022-09-26T19:06:16.237Z,7.78
2022-09-26T19:08:46.430Z,7.03
2022-09-26T19:11:16.739Z,7.28
2022-09-26T19:13:47.835Z,15.30
2022-09-26T19:16:16.810Z,28.17
2022-09-26T19:18:45.322Z,26.65
2022-09-26T19:21:21.316Z,32.10
2022-09-26T19:23:50.688Z,27.67
2022-09-26T19:26:25.966Z,28.45
2022-09-26T19:28:57.570Z,30.80
2022-09-26T19:31:25.944Z,28.53
2022-09-26T19:33:55.179Z,32.45
2022-09-26T19:36:23.516Z,27.10
2022-09-26T19:38:51.531Z,30.25
2022-09-26T19:41:19.681Z,29.55
2022-09-26T19:43:47.690Z,29.10
2022-09-26T19:46:27.275Z,29.33
2022-09-26T19:48:55.452Z,31.23
2022-09-26T19:51:24.598Z,30.85
2022-09-26T19:53:52.935Z,27.20
2022-09-26T19:56:20.859Z,30.75
2022-09-26T19:58:50.333Z,27.02
2022-09-26T20:01:22.947Z,27.40
2022-09-26T20:03:51.524Z,27.67
2022-09-26T20:06:22.049Z,28.73
2022-09-26T20:08:51.165Z,27.85
2022-09-26T20:11:19.649Z,26.88
2022-09-26T20:14:05.807Z,28.48
2022-09-26T20:16:38.638Z,26.23
2022-09-26T20:19:07.532Z,25.83
2022-09-26T20:21:35.529Z,25.13
2022-09-26T20:24:03.649Z,26.38
2022-09-26T20:26:33.562Z,26.45
2022-09-26T20:29:01.559Z,25.98
2022-09-26T20:31:30.273Z,29.02
2022-09-26T20:34:00.068Z,28.70
2022-09-26T20:36:31.961Z,27.10
2022-09-26T20:39:03.308Z,26.88
2022-09-26T20:41:33.919Z,26.63
2022-09-26T20:44:05.929Z,27.45
2022-09-26T20:46:37.555Z,27.75
2022-09-26T20:49:09.464Z,25.63
2022-09-26T20:51:37.370Z,27.00
2022-09-26T20:54:06.591Z,27.17
2022-09-26T20:56:34.515Z,27.00
2022-09-26T20:59:02.318Z,24.67
2022-09-26T21:01:30.247Z,23.00
2022-09-26T21:03:58.604Z,21.70
2022-09-26T21:06:34.154Z,19.92
2022-09-26T21:09:03.390Z,18.92
2022-09-26T21:11:31.305Z,18.00
2022-09-26T21:13:59.166Z,21.15
2022-09-26T21:16:27.188Z,17.90
2022-09-26T21:18:55.468Z,21.90
2022-09-26T21:21:25.284Z,20.92
2022-09-26T21:23:55.301Z,21.17
2022-09-26T21:26:25.158Z,22.45
2022-09-26T21:28:54.409Z,24.05
2022-09-26T21:31:26.820Z,26.77
2022-09-26T21:33:56.284Z,35.40
2022-09-26T21:36:25.937Z,47.55
2022-09-26T21:38:57.447Z,36.00
2022-09-26T21:41:25.673Z,32.90
2022-09-26T21:43:59.160Z,32.20
2022-09-26T21:46:27.345Z,31.05
2022-09-26T21:48:55.971Z,39.10
2022-09-26T21:51:26.049Z,37.47
2022-09-26T21:54:01.566Z,29.75
2022-09-26T21:56:33.690Z,28.45
2022-09-26T21:59:02.205Z,29.08
2022-09-26T22:01:29.979Z,30.02
2022-09-26T22:03:58.445Z,37.15
2022-09-26T22:06:27.053Z,38.00
2022-09-26T22:08:56.104Z,38.10
2022-09-26T22:11:23.937Z,46.53
2022-09-26T22:13:52.805Z,47.13
2022-09-26T22:16:20.540Z,36.88
2022-09-26T22:18:48.262Z,47.92
2022-09-26T22:21:16.415Z,40.95
2022-09-26T22:23:44.141Z,41.15
2022-09-26T22:26:13.219Z,51.50
2022-09-26T22:28:41.292Z,45.55
2022-09-26T22:31:09.113Z,32.97
2022-09-26T22:33:37.041Z,33.70
2022-09-26T22:36:06.206Z,33.88
2022-09-26T22:38:34.882Z,33.00
2022-09-26T22:41:04.988Z,28.38
2022-09-26T22:43:35.660Z,26.55
2022-09-26T22:46:06.376Z,31.10
2022-09-26T22:48:36.134Z,23.60
2022-09-26T22:51:05.783Z,23.98
2022-09-26T22:53:36.688Z,32.80
2022-09-26T22:56:05.961Z,23.58
2022-09-26T22:58:38.530Z,25.23
2022-09-26T23:01:09.117Z,26.50
2022-09-26T23:03:37.590Z,28.50
2022-09-26T23:06:06.430Z,34.25
2022-09-26T23:08:35.133Z,53.63
2022-09-26T23:11:04.020Z,43.90
2022-09-26T23:13:33.066Z,42.15
2022-09-26T23:16:06.177Z,43.78
2022-09-26T23:18:34.736Z,39.15
2022-09-26T23:21:07.406Z,35.38
2022-09-26T23:23:36.129Z,34.13
2022-09-26T23:26:05.549Z,35.13
2022-09-26T23:28:34.368Z,28.48
2022-09-26T23:31:07.867Z,48.55
2022-09-26T23:33:36.869Z,31.15
2022-09-26T23:36:06.382Z,33.55
2022-09-26T23:38:35.388Z,29.75
2022-09-26T23:41:03.479Z,32.28
2022-09-26T23:43:31.263Z,46.58
2022-09-26T23:45:59.048Z,27.77
2022-09-26T23:48:28.817Z,24.55
2022-09-26T23:50:57.610Z,25.17
2022-09-26T23:53:25.750Z,23.15
2022-09-26T23:55:53.800Z,22.95
2022-09-26T23:58:21.853Z,21.02
